Time;durP1;ratioP1;P1;durP2;ratioP2;P2;SDS_P1;SDS_P2;PMS_P1;PMS_P2;Temp;Humidity;BMP_temperature;BMP_pressure;BME280_temperature;BME280_humidity;BME280_pressure;Samples;Min_cycle;Max_cycle;Signal;HPM_P1;HPM_P2
2023/07/09 00:00:15;;;;;;;;;;;27.60;90.70;27.50;99690.00;;;;337718;28;83349;-94
2023/07/09 00:00:26;;;;;;;;;;;27.60;90.60;27.50;99695.00;;;;337160;28;90984;-93
2023/07/09 00:00:40;;;;;;;;;;;27.60;90.80;27.40;99695.00;;;;337538;28;83534;-94
2023/07/09 00:00:52;;;;;;;;;;;27.60;91.00;27.50;99692.00;;;;334669;29;87682;-93
2023/07/09 00:01:03;;;;;;;;;;;27.50;91.10;27.50;99699.00;;;;335738;28;84621;-93
2023/07/09 00:01:17;;;;;;;;;;;27.50;90.90;27.40;99701.00;;;;340008;28;90739;-94
2023/07/09 00:01:29;;;;;;;;;;;27.50;90.80;27.40;99695.00;;;;338208;28;83702;-93
2023/07/09 00:01:41;;;;;;;;;;;27.50;90.90;27.40;99690.00;;;;339694;28;93214;-93
2023/07/09 00:01:53;;;;;;;;;;;27.50;91.00;27.50;99702.00;;;;338984;28;83329;-93
2023/07/09 00:02:05;;;;;;;;;;;27.50;90.80;27.50;99696.00;;;;339921;28;91135;-93
2023/07/09 00:02:18;;;;;;;;;;;27.50;90.80;27.60;99699.00;;;;338544;28;82871;-94
2023/07/09 00:02:30;;;;;;;;;;;27.50;90.70;27.60;99692.00;;;;342627;28;90582;-93
2023/07/09 00:02:42;;;;;;;;;;;27.50;90.70;27.50;99696.00;;;;341694;27;83617;-92
2023/07/09 00:02:54;;;;;;;;;;;27.50;90.90;27.40;99694.00;;;;339666;28;91097;-93
2023/07/09 00:03:05;;;;;;;;;;;27.50;90.90;27.30;99696.00;;;;341470;28;83472;-93
2023/07/09 00:03:18;;;;;;;;;;;27.50;91.10;27.40;99697.00;;;;341375;28;90714;-94
2023/07/09 00:03:30;;;;;;;;;;;27.50;91.10;27.30;99695.00;;;;340316;28;82565;-94
2023/07/09 00:03:42;;;;;;;;;;;27.50;91.20;27.30;99694.00;;;;339885;28;91978;-93
2023/07/09 00:03:54;;;;;;;;;;;27.50;91.20;27.40;99695.00;;;;337769;28;82241;-93
2023/07/09 00:04:09;;;;;;;;;;;27.50;91.10;27.40;99691.00;;;;338608;28;91679;-93
2023/07/09 00:04:21;;;;;;;;;;;27.40;91.10;27.40;99695.00;;;;340373;28;83393;-92
2023/07/09 00:04:33;;;;;;;;;;;27.40;91.20;27.40;99694.00;;;;338545;28;91732;-94
2023/07/09 00:04:46;;;;;;;;;;;27.40;91.00;27.40;99691.00;;;;340362;28;83525;-95
2023/07/09 00:04:58;;;;;;;;;;;27.40;91.00;27.40;99697.00;;;;339772;28;91315;-94
2023/07/09 00:05:14;;;;;;;;;;;27.40;91.00;27.50;99693.00;;;;340135;28;83426;-94
2023/07/09 00:05:25;;;;;;;;;;;27.40;90.90;27.50;99692.00;;;;339766;28;89546;-95
2023/07/09 00:05:37;;;;;;;;;;;27.40;90.80;27.50;99696.00;;;;341587;28;83549;-93
2023/07/09 00:05:49;;;;;;;;;;;27.40;90.80;27.50;99700.00;;;;338567;28;92186;-93
2023/07/09 00:06:01;;;;;;;;;;;27.40;90.80;27.50;99702.00;;;;337633;28;83491;-94
2023/07/09 00:06:13;;;;;;;;;;;27.40;91.00;27.50;99700.00;;;;337301;28;91857;-92
2023/07/09 00:06:25;;;;;;;;;;;27.40;91.00;27.50;99694.00;;;;339070;28;83413;-93
2023/07/09 00:06:38;;;;;;;;;;;27.40;90.80;27.40;99698.00;;;;337304;28;90717;-93
2023/07/09 00:06:50;;;;;;;;;;;27.40;90.90;27.40;99691.00;;;;340248;28;82425;-94
2023/07/09 00:07:05;;;;;;;;;;;27.40;91.00;27.30;99690.00;;;;338630;28;90939;-93
2023/07/09 00:07:28;;;;;;;;;;;27.40;91.10;27.30;99692.00;;;;337724;28;83389;-93
2023/07/09 00:07:40;;;;;;;;;;;27.40;91.30;27.30;99695.00;;;;338401;28;91094;-94
2023/07/09 00:07:52;;;;;;;;;;;27.40;91.20;27.40;99697.00;;;;336953;28;83547;-94
2023/07/09 00:08:04;;;;;;;;;;;27.40;91.10;27.40;99691.00;;;;335899;29;91403;-94
2023/07/09 00:08:29;;;;;;;;;;;27.40;91.10;27.30;99698.00;;;;338989;28;83433;-93
2023/07/09 00:08:44;;;;;;;;;;;27.40;91.30;27.30;99695.00;;;;337338;28;91601;-93
2023/07/09 00:08:55;;;;;;;;;;;27.40;91.40;27.30;99698.00;;;;340173;28;83532;-93
2023/07/09 00:09:14;;;;;;;;;;;27.30;91.20;27.40;99691.00;;;;339824;28;89749;-93
2023/07/09 00:09:26;;;;;;;;;;;27.30;91.10;27.40;99697.00;;;;340422;28;82266;-92
2023/07/09 00:09:38;;;;;;;;;;;27.30;91.10;27.40;99702.00;;;;338554;28;91335;-93
2023/07/09 00:09:50;;;;;;;;;;;27.30;91.00;27.40;99689.00;;;;337624;28;82594;-94
2023/07/09 00:10:02;;;;;;;;;;;27.30;90.90;27.40;99693.00;;;;336069;28;89112;-93
2023/07/09 00:10:18;;;;;;;;;;;27.40;90.90;27.40;99688.00;;;;337740;28;82517;-94
2023/07/09 00:10:30;;;;;;;;;;;27.30;91.00;27.30;99692.00;;;;338584;28;92515;-94
2023/07/09 00:10:42;;;;;;;;;;;27.30;91.00;27.20;99688.00;;;;337590;28;82558;-94
2023/07/09 00:10:55;;;;;;;;;;;27.40;91.10;27.30;99691.00;;;;337133;28;91567;-94
2023/07/09 00:11:06;;;;;;;;;;;27.30;91.00;27.30;99693.00;;;;337690;28;83421;-93
2023/07/09 00:11:18;;;;;;;;;;;27.30;91.00;27.20;99697.00;;;;337219;28;91111;-93
2023/07/09 00:11:31;;;;;;;;;;;27.40;91.10;27.30;99690.00;;;;338818;28;83393;-93
2023/07/09 00:11:43;;;;;;;;;;;27.30;91.40;27.40;99694.00;;;;338599;28;90869;-93
2023/07/09 00:11:55;;;;;;;;;;;27.30;91.00;27.30;99690.00;;;;337751;28;83431;-93
2023/07/09 00:12:17;;;;;;;;;;;27.30;91.00;27.40;99696.00;;;;335908;29;91716;-94
2023/07/09 00:12:29;;;;;;;;;;;27.30;90.80;27.40;99696.00;;;;336410;28;83573;-94
2023/07/09 00:12:41;;;;;;;;;;;27.30;90.80;27.40;99700.00;;;;338509;28;92152;-94
2023/07/09 00:12:53;;;;;;;;;;;27.30;91.00;27.40;99691.00;;;;338902;28;82503;-92
2023/07/09 00:13:05;;;;;;;;;;;27.30;91.00;27.40;99686.00;;;;337322;28;90943;-93
2023/07/09 00:13:17;;;;;;;;;;;27.30;90.90;27.40;99695.00;;;;337888;28;82647;-93
2023/07/09 00:13:29;;;;;;;;;;;27.30;90.90;27.40;99691.00;;;;337241;28;90319;-92
2023/07/09 00:13:41;;;;;;;;;;;27.40;90.90;27.40;99692.00;;;;338976;28;83495;-93
2023/07/09 00:13:53;;;;;;;;;;;27.40;91.10;27.40;99700.00;;;;338433;28;91563;-93
2023/07/09 00:14:05;;;;;;;;;;;27.30;91.20;27.40;99692.00;;;;339144;28;82406;-93
2023/07/09 00:14:17;;;;;;;;;;;27.40;91.10;27.30;99696.00;;;;338464;28;91746;-92
2023/07/09 00:14:29;;;;;;;;;;;27.30;91.20;27.30;99697.00;;;;338626;28;83561;-93
2023/07/09 00:14:41;;;;;;;;;;;27.30;91.40;27.30;99705.00;;;;339314;28;92031;-93
2023/07/09 00:14:54;;;;;;;;;;;27.30;91.10;27.30;99700.00;;;;340910;28;83487;-93
2023/07/09 00:15:11;;;;;;;;;;;27.30;91.30;27.30;99704.00;;;;349257;27;90582;-93
2023/07/09 00:15:24;;;;;;;;;;;27.30;91.20;27.40;99696.00;;;;347223;28;83633;-93
2023/07/09 00:15:36;;;;;;;;;;;27.30;91.00;27.40;99706.00;;;;345470;28;90978;-94
2023/07/09 00:15:48;;;;;;;;;;;27.30;91.00;27.40;99689.00;;;;345964;28;83321;-94
2023/07/09 00:16:01;;;;;;;;;;;27.30;91.00;27.40;99698.00;;;;348288;27;91733;-93
2023/07/09 00:16:16;;;;;;;;;;;27.30;91.10;27.30;99696.00;;;;347352;28;83551;-94
2023/07/09 00:16:29;;;;;;;;;;;27.30;91.00;27.40;99699.00;;;;347820;27;91308;-93
2023/07/09 00:16:42;;;;;;;;;;;27.30;91.00;27.50;99698.00;;;;345577;28;83444;-92
2023/07/09 00:16:54;;;;;;;;;;;27.30;91.20;27.50;99703.00;;;;346172;28;91278;-92
2023/07/09 00:17:21;;;;;;;;;;;27.30;91.00;27.50;99702.00;;;;347071;28;83998;-93
2023/07/09 00:17:33;;;;;;;;;;;27.30;91.00;27.50;99699.00;;;;346198;28;90059;-92
2023/07/09 00:17:45;;;;;;;;;;;27.30;91.00;27.40;99703.00;;;;346014;28;83469;-93
2023/07/09 00:18:00;;;;;;;;;;;27.40;91.10;27.30;99697.00;;;;347026;28;91265;-94
2023/07/09 00:18:12;;;;;;;;;;;27.40;91.20;27.20;99695.00;;;;347318;28;82600;-91
2023/07/09 00:18:24;;;;;;;;;;;27.30;91.10;27.20;99699.00;;;;348433;27;90245;-93
2023/07/09 00:18:35;;;;;;;;;;;27.30;91.10;27.30;99700.00;;;;346676;28;83998;-92
2023/07/09 00:18:48;;;;;;;;;;;27.30;91.10;27.30;99701.00;;;;344325;28;91181;-93
2023/07/09 00:19:02;;;;;;;;;;;27.30;91.00;27.30;99701.00;;;;347436;28;82510;-94
2023/07/09 00:19:18;;;;;;;;;;;27.30;91.10;27.30;99706.00;;;;345515;28;92474;-93
2023/07/09 00:19:30;;;;;;;;;;;27.30;91.00;27.20;99703.00;;;;344535;28;83436;-93
2023/07/09 00:19:43;;;;;;;;;;;27.30;91.00;27.30;99702.00;;;;346792;28;89909;-92
2023/07/09 00:19:55;;;;;;;;;;;27.30;91.00;27.30;99703.00;;;;346049;28;82596;-93
2023/07/09 00:20:16;;;;;;;;;;;27.30;91.00;27.20;99701.00;;;;347038;28;89978;-92
2023/07/09 00:20:28;;;;;;;;;;;27.30;91.20;27.20;99695.00;;;;344703;28;83262;-93
2023/07/09 00:20:43;;;;;;;;;;;27.30;91.10;27.20;99705.00;;;;344860;28;90633;-91
2023/07/09 00:20:55;;;;;;;;;;;27.30;91.00;27.20;99705.00;;;;350179;27;82544;-92
2023/07/09 00:21:06;;;;;;;;;;;27.30;90.90;27.20;99709.00;;;;345801;28;90829;-93
2023/07/09 00:21:20;;;;;;;;;;;27.30;91.00;27.20;99702.00;;;;346336;28;83684;-92
2023/07/09 00:21:33;;;;;;;;;;;27.30;90.90;27.20;99701.00;;;;346994;28;91410;-92
2023/07/09 00:21:47;;;;;;;;;;;27.30;91.00;27.20;99702.00;;;;349052;28;82579;-92
2023/07/09 00:21:59;;;;;;;;;;;27.30;91.10;27.10;99700.00;;;;347012;28;91730;-94
2023/07/09 00:22:18;;;;;;;;;;;27.30;91.10;27.10;99713.00;;;;348841;28;82438;-93
2023/07/09 00:22:30;;;;;;;;;;;27.30;91.10;27.10;99700.00;;;;347864;28;90785;-93
2023/07/09 00:22:47;;;;;;;;;;;27.30;91.10;27.20;99704.00;;;;350579;27;82383;-94
2023/07/09 00:22:59;;;;;;;;;;;27.20;90.90;27.10;99712.00;;;;346833;28;89116;-93
2023/07/09 00:23:13;;;;;;;;;;;27.20;90.90;27.10;99700.00;;;;348552;27;84526;-93
2023/07/09 00:23:27;;;;;;;;;;;27.20;91.00;27.10;99708.00;;;;347335;28;90593;-94
2023/07/09 00:23:39;;;;;;;;;;;27.20;91.10;27.10;99701.00;;;;347990;28;82306;-93
2023/07/09 00:23:51;;;;;;;;;;;27.20;91.20;27.10;99710.00;;;;346438;28;91771;-93
2023/07/09 00:24:04;;;;;;;;;;;27.20;91.20;27.10;99709.00;;;;350743;27;82465;-93
2023/07/09 00:24:16;;;;;;;;;;;27.20;91.10;27.10;99706.00;;;;347057;28;90677;-91
2023/07/09 00:24:28;;;;;;;;;;;27.20;91.10;27.10;99707.00;;;;350658;27;82502;-93
2023/07/09 00:24:40;;;;;;;;;;;27.20;91.10;27.10;99714.00;;;;348780;28;90599;-92
2023/07/09 00:24:56;;;;;;;;;;;27.20;91.00;27.10;99705.00;;;;350472;27;82991;-93
2023/07/09 00:25:16;;;;;;;;;;;27.20;90.90;27.10;99712.00;;;;348745;28;90684;-92
2023/07/09 00:25:28;;;;;;;;;;;27.20;91.10;27.10;99702.00;;;;347807;28;82481;-93
2023/07/09 00:25:44;;;;;;;;;;;27.20;90.90;27.10;99707.00;;;;348727;28;90989;-93
2023/07/09 00:25:56;;;;;;;;;;;27.20;90.80;27.10;99699.00;;;;347534;28;82620;-93
2023/07/09 00:26:10;;;;;;;;;;;27.20;91.00;27.10;99710.00;;;;345739;28;92232;-93
2023/07/09 00:26:23;;;;;;;;;;;27.20;91.00;27.10;99705.00;;;;345905;27;83603;-92
2023/07/09 00:26:37;;;;;;;;;;;27.20;90.90;27.10;99706.00;;;;348628;27;91533;-93
2023/07/09 00:26:49;;;;;;;;;;;27.20;90.90;27.10;99706.00;;;;347783;27;83617;-94
2023/07/09 00:27:01;;;;;;;;;;;27.20;91.00;27.10;99706.00;;;;347190;28;91743;-93
2023/07/09 00:27:13;;;;;;;;;;;27.20;90.90;27.10;99707.00;;;;347565;28;83847;-93
2023/07/09 00:27:27;;;;;;;;;;;27.20;91.00;27.10;99705.00;;;;348547;27;90782;-94
2023/07/09 00:27:39;;;;;;;;;;;27.20;91.30;27.10;99715.00;;;;347153;28;83582;-95
2023/07/09 00:27:51;;;;;;;;;;;27.20;91.30;27.10;99708.00;;;;345733;28;91023;-92
2023/07/09 00:28:03;;;;;;;;;;;27.20;91.20;27.10;99704.00;;;;346078;28;82631;-94
2023/07/09 00:28:19;;;;;;;;;;;27.20;91.20;27.10;99714.00;;;;347128;28;91750;-94
2023/07/09 00:28:30;;;;;;;;;;;27.20;91.10;27.20;99704.00;;;;348887;27;83334;-93
2023/07/09 00:28:43;;;;;;;;;;;27.20;91.10;27.20;99708.00;;;;348643;27;91701;-93
2023/07/09 00:28:54;;;;;;;;;;;27.20;91.20;27.20;99706.00;;;;346095;28;83526;-93
2023/07/09 00:29:10;;;;;;;;;;;27.20;91.30;27.10;99704.00;;;;347134;28;91099;-94
2023/07/09 00:29:22;;;;;;;;;;;27.20;91.20;27.10;99703.00;;;;346618;27;82519;-93
2023/07/09 00:29:34;;;;;;;;;;;27.20;91.30;27.10;99706.00;;;;345160;28;90126;-93
2023/07/09 00:29:46;;;;;;;;;;;27.20;91.20;27.10;99709.00;;;;344825;28;83450;-93
2023/07/09 00:29:58;;;;;;;;;;;27.10;91.20;27.10;99708.00;;;;344356;28;90535;-92
2023/07/09 00:30:20;;;;;;;;;;;27.20;91.30;27.10;99703.00;;;;343389;28;83398;-94
2023/07/09 00:30:32;;;;;;;;;;;27.20;91.20;27.10;99706.00;;;;345720;28;91802;-93
2023/07/09 00:30:44;;;;;;;;;;;27.20;91.20;27.10;99704.00;;;;346293;28;82488;-93
2023/07/09 00:30:56;;;;;;;;;;;27.20;91.00;27.20;99702.00;;;;348533;27;90422;-94
2023/07/09 00:31:13;;;;;;;;;;;27.20;91.20;27.20;99709.00;;;;347558;28;83451;-93
2023/07/09 00:31:25;;;;;;;;;;;27.20;91.20;27.30;99701.00;;;;345407;28;91859;-93
2023/07/09 00:31:41;;;;;;;;;;;27.20;91.20;27.30;99704.00;;;;347554;27;83391;-92
2023/07/09 00:31:53;;;;;;;;;;;27.20;91.30;27.20;99703.00;;;;345693;28;91869;-93
2023/07/09 00:32:20;;;;;;;;;;;27.20;91.60;27.20;99707.00;;;;347633;28;83352;-93
2023/07/09 00:32:43;;;;;;;;;;;27.20;91.40;27.10;99705.00;;;;345909;28;91172;-94
2023/07/09 00:32:55;;;;;;;;;;;27.20;91.30;27.10;99700.00;;;;345838;28;83089;-93
2023/07/09 00:33:14;;;;;;;;;;;27.20;91.10;27.20;99698.00;;;;346813;28;90965;-94
2023/07/09 00:33:31;;;;;;;;;;;27.20;91.10;27.10;99705.00;;;;345735;28;82542;-94
2023/07/09 00:33:43;;;;;;;;;;;27.20;91.40;27.30;99707.00;;;;345615;28;91622;-94
2023/07/09 00:33:59;;;;;;;;;;;27.20;91.40;27.20;99704.00;;;;346248;28;83113;-93
2023/07/09 00:34:13;;;;;;;;;;;27.20;91.30;27.20;99704.00;;;;344563;28;91908;-93
2023/07/09 00:34:25;;;;;;;;;;;27.20;91.50;27.20;99693.00;;;;344838;28;83329;-94
2023/07/09 00:34:38;;;;;;;;;;;27.20;91.20;27.20;99699.00;;;;344376;28;91733;-92
2023/07/09 00:34:51;;;;;;;;;;;27.20;91.20;27.20;99710.00;;;;344777;28;83428;-93
2023/07/09 00:35:05;;;;;;;;;;;27.20;91.20;27.20;99706.00;;;;344368;28;91930;-93
2023/07/09 00:35:16;;;;;;;;;;;27.20;91.20;27.20;99706.00;;;;346312;28;82356;-93
2023/07/09 00:35:28;;;;;;;;;;;27.20;91.10;27.10;99698.00;;;;345703;28;91830;-93
2023/07/09 00:35:44;;;;;;;;;;;27.20;91.20;27.00;99706.00;;;;346259;28;83428;-92
2023/07/09 00:35:56;;;;;;;;;;;27.20;91.50;27.00;99712.00;;;;347173;28;91629;-94
2023/07/09 00:36:23;;;;;;;;;;;27.20;91.90;27.10;99703.00;;;;347474;28;83493;-93
2023/07/09 00:36:35;;;;;;;;;;;27.10;91.50;27.10;99701.00;;;;345636;28;91406;-94
2023/07/09 00:36:47;;;;;;;;;;;27.10;91.30;27.00;99697.00;;;;346059;28;82456;-93
2023/07/09 00:36:59;;;;;;;;;;;27.10;91.50;27.00;99697.00;;;;347138;28;90673;-93
2023/07/09 00:37:12;;;;;;;;;;;27.10;91.60;27.00;99700.00;;;;346346;28;82535;-95
2023/07/09 00:37:27;;;;;;;;;;;27.10;91.50;27.00;99694.00;;;;345763;28;91550;-93
2023/07/09 00:37:39;;;;;;;;;;;27.10;91.50;26.90;99700.00;;;;344970;28;82498;-94
2023/07/09 00:37:51;;;;;;;;;;;27.10;91.50;26.90;99698.00;;;;344813;28;92807;-93
2023/07/09 00:38:03;;;;;;;;;;;27.10;91.70;26.90;99701.00;;;;346454;28;83465;-94
2023/07/09 00:38:21;;;;;;;;;;;27.10;91.90;26.90;99699.00;;;;345250;28;90229;-92
2023/07/09 00:38:38;;;;;;;;;;;27.10;91.50;26.90;99704.00;;;;344970;28;82426;-95
2023/07/09 00:38:51;;;;;;;;;;;27.10;91.50;26.80;99704.00;;;;344404;28;91030;-93
2023/07/09 00:39:06;;;;;;;;;;;27.10;91.70;26.90;99696.00;;;;344866;28;83554;-93
2023/07/09 00:39:19;;;;;;;;;;;27.10;91.50;26.80;99702.00;;;;345605;28;91975;-93
2023/07/09 00:39:31;;;;;;;;;;;27.10;91.60;26.90;99700.00;;;;345915;28;82527;-93
2023/07/09 00:39:43;;;;;;;;;;;27.10;91.60;26.90;99700.00;;;;347196;28;90196;-92
2023/07/09 00:39:55;;;;;;;;;;;27.10;91.60;26.90;99700.00;;;;347703;28;83019;-94
2023/07/09 00:40:18;;;;;;;;;;;27.10;91.60;26.90;99698.00;;;;348278;27;90479;-93
2023/07/09 00:40:31;;;;;;;;;;;27.10;91.50;26.90;99697.00;;;;349108;27;82574;-92
2023/07/09 00:40:48;;;;;;;;;;;27.00;91.40;26.80;99698.00;;;;350007;27;90503;-93
2023/07/09 00:41:02;;;;;;;;;;;27.10;91.50;26.90;99698.00;;;;346176;28;83538;-93
2023/07/09 00:41:17;;;;;;;;;;;27.00;91.40;26.90;99704.00;;;;345892;28;90440;-93
2023/07/09 00:41:29;;;;;;;;;;;27.00;91.60;26.90;99695.00;;;;347075;28;83388;-93
2023/07/09 00:41:41;;;;;;;;;;;27.00;91.70;26.90;99706.00;;;;345981;28;90803;-93
2023/07/09 00:41:53;;;;;;;;;;;27.00;91.80;26.90;99697.00;;;;346341;28;83933;-93
2023/07/09 00:42:05;;;;;;;;;;;27.00;91.60;26.90;99701.00;;;;345585;28;90649;-94
2023/07/09 00:42:19;;;;;;;;;;;27.00;91.60;26.90;99703.00;;;;347442;28;82557;-93
2023/07/09 00:42:31;;;;;;;;;;;27.00;91.60;26.90;99705.00;;;;347221;28;92718;-92
2023/07/09 00:42:44;;;;;;;;;;;27.00;91.60;26.90;99701.00;;;;343779;28;83511;-93
2023/07/09 00:42:59;;;;;;;;;;;27.00;91.60;26.90;99705.00;;;;344417;28;91717;-93
2023/07/09 00:43:14;;;;;;;;;;;27.00;91.50;26.90;99708.00;;;;344962;28;83309;-94
2023/07/09 00:43:36;;;;;;;;;;;27.00;91.50;26.70;99694.00;;;;345799;28;91730;-93
2023/07/09 00:43:49;;;;;;;;;;;27.00;91.60;26.80;99700.00;;;;347485;28;83524;-92
2023/07/09 00:44:19;;;;;;;;;;;27.00;91.80;26.70;99701.00;;;;348057;27;90567;-92
2023/07/09 00:44:32;;;;;;;;;;;27.00;92.10;26.80;99698.00;;;;349087;27;82491;-93
2023/07/09 00:44:45;;;;;;;;;;;27.00;91.80;26.80;99701.00;;;;347845;27;91718;-92
2023/07/09 00:44:57;;;;;;;;;;;26.90;91.60;26.80;99702.00;;;;344878;28;83422;-93
2023/07/09 00:45:20;;;;;;;;;;;27.00;91.50;26.90;99698.00;;;;345733;28;92811;-94
2023/07/09 00:45:32;;;;;;;;;;;27.00;91.60;26.90;99703.00;;;;346182;28;83767;-92
2023/07/09 00:45:44;;;;;;;;;;;26.90;91.50;26.90;99698.00;;;;347196;28;91241;-94
2023/07/09 00:46:14;;;;;;;;;;;27.00;91.50;26.70;99701.00;;;;347593;28;83446;-94
2023/07/09 00:46:27;;;;;;;;;;;27.00;91.40;26.70;99699.00;;;;346667;28;91763;-93
2023/07/09 00:46:48;;;;;;;;;;;27.00;91.70;26.70;99696.00;;;;347561;28;82530;-93
2023/07/09 00:47:02;;;;;;;;;;;26.90;91.70;26.70;99702.00;;;;345829;28;91520;-91
2023/07/09 00:47:18;;;;;;;;;;;27.00;91.70;26.60;99700.00;;;;347762;28;82524;-94
2023/07/09 00:47:42;;;;;;;;;;;26.90;91.70;26.60;99699.00;;;;346809;27;87650;-93
2023/07/09 00:47:56;;;;;;;;;;;26.90;91.80;26.70;99695.00;;;;347544;28;83202;-93
2023/07/09 00:48:12;;;;;;;;;;;26.90;91.90;26.70;99697.00;;;;345654;28;91938;-92
2023/07/09 00:48:26;;;;;;;;;;;26.90;91.70;26.70;99699.00;;;;344899;28;83422;-92
2023/07/09 00:48:38;;;;;;;;;;;26.90;91.90;26.70;99701.00;;;;344339;28;90773;-93
2023/07/09 00:48:58;;;;;;;;;;;26.90;91.70;26.70;99697.00;;;;346223;28;82473;-94
2023/07/09 00:49:10;;;;;;;;;;;26.90;91.60;26.70;99700.00;;;;345677;28;90863;-94
2023/07/09 00:49:46;;;;;;;;;;;26.90;91.70;26.80;99708.00;;;;347612;28;82596;-93
2023/07/09 00:50:27;;;;;;;;;;;26.90;91.60;26.70;99705.00;;;;344472;28;90473;-93
2023/07/09 00:50:49;;;;;;;;;;;26.90;92.00;26.60;99706.00;;;;341521;28;83668;-93
2023/07/09 00:51:01;;;;;;;;;;;26.80;91.90;26.60;99698.00;;;;344210;28;90270;-94
2023/07/09 00:51:15;;;;;;;;;;;26.80;91.90;26.50;99707.00;;;;347524;28;82515;-93
2023/07/09 00:51:27;;;;;;;;;;;26.80;91.90;26.50;99703.00;;;;345647;28;91824;-95
2023/07/09 00:51:41;;;;;;;;;;;26.80;92.00;26.60;99705.00;;;;345906;28;82540;-92
2023/07/09 00:51:53;;;;;;;;;;;26.80;91.90;26.60;99701.00;;;;345756;28;91077;-92
2023/07/09 00:52:27;;;;;;;;;;;26.80;91.90;26.50;99713.00;;;;347569;28;82578;-92
2023/07/09 00:52:49;;;;;;;;;;;26.80;92.00;26.60;99706.00;;;;347393;27;91637;-92
2023/07/09 00:53:07;;;;;;;;;;;26.80;92.10;26.60;99707.00;;;;346121;28;83443;-95
2023/07/09 00:53:22;;;;;;;;;;;26.80;91.90;26.60;99707.00;;;;344390;28;91377;-93
2023/07/09 00:53:34;;;;;;;;;;;26.80;91.80;26.60;99705.00;;;;347512;28;82287;-92
2023/07/09 00:53:46;;;;;;;;;;;26.80;91.70;26.70;99708.00;;;;342784;28;91877;-94
2023/07/09 00:54:00;;;;;;;;;;;26.80;91.70;26.70;99710.00;;;;346184;28;83439;-93
2023/07/09 00:54:30;;;;;;;;;;;26.70;91.70;26.70;99705.00;;;;344155;28;91495;-95
2023/07/09 00:54:42;;;;;;;;;;;26.70;91.70;26.80;99705.00;;;;347261;27;83524;-94
2023/07/09 00:54:54;;;;;;;;;;;26.80;91.60;26.80;99714.00;;;;345639;28;92093;-92
2023/07/09 00:55:09;;;;;;;;;;;26.80;91.60;26.80;99707.00;;;;347141;28;83564;-92
2023/07/09 00:55:26;;;;;;;;;;;26.80;91.70;26.70;99711.00;;;;346976;28;90615;-92
2023/07/09 00:55:39;;;;;;;;;;;26.80;91.70;26.70;99708.00;;;;347590;27;83434;-94
2023/07/09 00:55:57;;;;;;;;;;;26.80;91.60;26.70;99702.00;;;;348525;27;91849;-93
2023/07/09 00:56:10;;;;;;;;;;;26.80;91.60;26.70;99704.00;;;;344778;28;83352;-92
2023/07/09 00:56:30;;;;;;;;;;;26.80;91.60;26.70;99707.00;;;;345761;28;87652;-93
2023/07/09 00:56:44;;;;;;;;;;;26.80;91.60;26.70;99707.00;;;;349033;27;83457;-92
2023/07/09 00:56:59;;;;;;;;;;;26.80;92.00;26.70;99708.00;;;;345599;28;91015;-93
2023/07/09 00:57:13;;;;;;;;;;;26.70;91.90;26.70;99707.00;;;;346204;28;83338;-93
2023/07/09 00:57:25;;;;;;;;;;;26.80;92.10;26.70;99707.00;;;;348214;27;91068;-93
2023/07/09 00:57:38;;;;;;;;;;;26.70;92.10;26.60;99712.00;;;;346186;28;83473;-92
2023/07/09 00:57:56;;;;;;;;;;;26.70;92.10;26.60;99708.00;;;;347160;28;90305;-92
2023/07/09 00:58:10;;;;;;;;;;;26.70;92.30;26.70;99711.00;;;;346109;28;83465;-93
2023/07/09 00:58:27;;;;;;;;;;;26.70;91.80;26.70;99705.00;;;;345789;28;90560;-92
2023/07/09 00:58:39;;;;;;;;;;;26.70;91.80;26.70;99709.00;;;;346308;28;82545;-93
2023/07/09 00:58:51;;;;;;;;;;;26.70;91.90;26.70;99709.00;;;;346885;28;90696;-92
2023/07/09 00:59:05;;;;;;;;;;;26.70;91.70;26.70;99712.00;;;;346182;28;83415;-94
2023/07/09 00:59:18;;;;;;;;;;;26.80;92.00;26.60;99712.00;;;;347098;28;88850;-93
2023/07/09 00:59:31;;;;;;;;;;;26.70;92.20;26.70;99710.00;;;;344351;28;83513;-92
2023/07/09 00:59:45;;;;;;;;;;;26.70;92.00;26.70;99708.00;;;;347664;27;90542;-94
2023/07/09 00:59:59;;;;;;;;;;;26.70;91.90;26.70;99711.00;;;;346091;28;82544;-93
2023/07/09 01:00:13;;;;;;;;;;;26.70;92.10;26.70;99715.00;;;;344287;28;91577;-92
2023/07/09 01:00:35;;;;;;;;;;;26.70;92.20;26.60;99708.00;;;;346115;28;83527;-93
2023/07/09 01:00:52;;;;;;;;;;;26.70;92.20;26.70;99711.00;;;;344453;28;89183;-95
2023/07/09 01:01:06;;;;;;;;;;;26.70;91.90;26.70;99713.00;;;;346263;28;82508;-94
2023/07/09 01:01:19;;;;;;;;;;;26.70;91.80;26.70;99707.00;;;;345787;28;90939;-94
2023/07/09 01:01:30;;;;;;;;;;;26.70;91.90;26.70;99714.00;;;;345626;28;83671;-94
2023/07/09 01:01:42;;;;;;;;;;;26.70;91.80;26.60;99708.00;;;;346568;28;92488;-93
2023/07/09 01:01:55;;;;;;;;;;;26.70;92.00;26.60;99711.00;;;;347560;28;82519;-93
2023/07/09 01:02:07;;;;;;;;;;;26.70;92.10;26.70;99702.00;;;;348018;27;91300;-94
2023/07/09 01:02:23;;;;;;;;;;;26.70;92.00;26.70;99713.00;;;;347368;28;82555;-93
2023/07/09 01:02:36;;;;;;;;;;;26.70;91.90;26.70;99720.00;;;;347095;28;91282;-92
2023/07/09 01:02:48;;;;;;;;;;;26.70;92.00;26.60;99710.00;;;;345720;28;83344;-94
2023/07/09 01:03:00;;;;;;;;;;;26.70;92.10;26.60;99714.00;;;;344106;28;91600;-94
2023/07/09 01:03:29;;;;;;;;;;;26.70;92.00;26.60;99717.00;;;;346212;28;83383;-92
2023/07/09 01:03:44;;;;;;;;;;;26.70;92.20;26.70;99710.00;;;;347069;28;91480;-93
2023/07/09 01:03:59;;;;;;;;;;;26.70;92.10;26.70;99714.00;;;;348961;27;82540;-93
2023/07/09 01:04:11;;;;;;;;;;;26.70;92.00;26.70;99717.00;;;;345614;28;92698;-93
2023/07/09 01:04:23;;;;;;;;;;;26.70;91.90;26.70;99712.00;;;;347588;28;83494;-93
2023/07/09 01:04:36;;;;;;;;;;;26.70;91.90;26.70;99712.00;;;;345816;28;89154;-93
2023/07/09 01:04:48;;;;;;;;;;;26.70;91.90;26.70;99718.00;;;;346235;28;83626;-93
2023/07/09 01:05:00;;;;;;;;;;;26.70;92.00;26.70;99710.00;;;;347199;28;90200;-94
2023/07/09 01:05:13;;;;;;;;;;;26.70;91.90;26.70;99713.00;;;;346222;28;82482;-94
2023/07/09 01:05:25;;;;;;;;;;;26.70;92.00;26.70;99717.00;;;;345815;28;90424;-94
2023/07/09 01:05:38;;;;;;;;;;;26.70;92.20;26.70;99714.00;;;;347521;28;82437;-93
2023/07/09 01:05:51;;;;;;;;;;;26.70;92.00;26.70;99715.00;;;;345851;28;91218;-94
2023/07/09 01:06:05;;;;;;;;;;;26.70;91.90;26.80;99721.00;;;;344569;28;83371;-95
2023/07/09 01:06:20;;;;;;;;;;;26.70;91.90;26.90;99718.00;;;;345756;28;90102;-94
2023/07/09 01:06:43;;;;;;;;;;;26.70;92.20;26.90;99714.00;;;;347444;28;83410;-92
2023/07/09 01:06:55;;;;;;;;;;;26.70;92.10;27.00;99719.00;;;;343804;28;90596;-95
2023/07/09 01:07:07;;;;;;;;;;;26.80;92.20;27.00;99712.00;;;;346234;28;82448;-92
2023/07/09 01:07:19;;;;;;;;;;;26.80;92.10;27.00;99713.00;;;;347101;28;90755;-93
2023/07/09 01:07:31;;;;;;;;;;;26.80;92.10;27.00;99716.00;;;;346025;28;83219;-92
2023/07/09 01:07:45;;;;;;;;;;;26.80;92.10;26.90;99716.00;;;;346947;28;90785;-93
2023/07/09 01:07:58;;;;;;;;;;;26.80;92.10;26.90;99715.00;;;;346214;28;82618;-92
2023/07/09 01:08:09;;;;;;;;;;;26.80;92.00;26.90;99716.00;;;;348443;27;91850;-94
2023/07/09 01:08:21;;;;;;;;;;;26.80;92.10;26.90;99711.00;;;;347566;28;83458;-92
2023/07/09 01:08:34;;;;;;;;;;;26.80;92.20;26.90;99715.00;;;;344286;28;91025;-93
2023/07/09 01:08:46;;;;;;;;;;;26.80;92.10;26.90;99720.00;;;;346889;28;83303;-93
2023/07/09 01:08:58;;;;;;;;;;;26.80;92.00;26.80;99719.00;;;;345642;28;91978;-94
2023/07/09 01:09:12;;;;;;;;;;;26.80;92.00;26.70;99714.00;;;;347646;28;83346;-93
2023/07/09 01:09:24;;;;;;;;;;;26.80;92.30;26.80;99698.00;;;;345605;28;91664;-92
2023/07/09 01:09:40;;;;;;;;;;;26.80;92.20;26.80;99715.00;;;;348449;27;83674;-93
2023/07/09 01:09:53;;;;;;;;;;;26.80;92.10;26.70;99715.00;;;;348607;27;88017;-93
2023/07/09 01:10:05;;;;;;;;;;;26.80;92.20;26.60;99720.00;;;;347528;28;83321;-94
2023/07/09 01:10:18;;;;;;;;;;;26.80;92.40;26.70;99717.00;;;;342918;28;91828;-94
2023/07/09 01:10:30;;;;;;;;;;;26.80;92.40;26.70;99715.00;;;;346247;28;83380;-92